Time;durP1;ratioP1;P1;durP2;ratioP2;P2;SDS_P1;SDS_P2;PMS_P1;PMS_P2;Temp;Humidity;BMP_temperature;BMP_pressure;BME280_temperature;BME280_humidity;BME280_pressure;Samples;Min_cycle;Max_cycle;Signal;HPM_P1;HPM_P2
2024/02/08 00:01:59;;;;;;;6.10;3.83;;;;;;;18.54;39.83;100297.00;4979422;28;20465;-72
2024/02/08 00:04:25;;;;;;;6.80;3.88;;;;;;;18.36;39.87;100279.22;4980185;28;20260;-73
2024/02/08 00:06:50;;;;;;;7.55;4.00;;;;;;;18.51;39.82;100313.09;4980605;28;20039;-71
2024/02/08 00:09:15;;;;;;;7.80;4.20;;;;;;;18.47;39.90;100321.28;4980490;28;20027;-69
2024/02/08 00:11:40;;;;;;;7.10;4.03;;;;;;;18.41;39.92;100313.13;4979061;28;20030;-68
2024/02/08 00:14:06;;;;;;;6.90;3.97;;;;;;;18.33;39.56;100307.72;4979482;28;20034;-71
2024/02/08 00:16:31;;;;;;;6.28;3.83;;;;;;;18.45;39.74;100322.41;4979690;28;20038;-67
2024/02/08 00:18:56;;;;;;;7.57;3.88;;;;;;;18.28;39.82;100293.13;4980068;28;20122;-68
2024/02/08 00:21:21;;;;;;;6.45;3.63;;;;;;;18.44;39.90;100318.94;4994979;28;20037;-70
2024/02/08 00:23:47;;;;;;;6.45;3.60;;;;;;;18.29;39.81;100299.22;4980051;28;20030;-70
2024/02/08 00:26:14;;;;;;;6.82;3.70;;;;;;;18.38;39.63;100305.47;4978616;28;20034;-68
2024/02/08 00:28:39;;;;;;;7.55;3.90;;;;;;;18.42;39.96;100317.41;4980045;28;20038;-71
2024/02/08 00:31:06;;;;;;;6.30;3.65;;;;;;;18.30;39.65;100293.78;4979871;28;20047;-69
2024/02/08 00:33:33;;;;;;;7.57;3.85;;;;;;;18.34;39.71;100312.84;4980077;28;20124;-70
2024/02/08 00:36:00;;;;;;;7.20;3.97;;;;;;;18.34;39.76;100319.91;4980047;28;20479;-71
2024/02/08 00:38:29;;;;;;;5.85;3.42;;;;;;;18.23;39.47;100289.22;4980175;28;20054;-71
2024/02/08 00:40:55;;;;;;;6.35;3.88;;;;;;;18.34;39.56;100318.13;4980547;28;20081;-71
2024/02/08 00:43:20;;;;;;;6.95;3.90;;;;;;;18.36;39.38;100323.22;4979827;28;20062;-70
2024/02/08 00:45:46;;;;;;;6.72;4.38;;;;;;;18.20;39.58;100300.91;4980552;28;20038;-69
2024/02/08 00:48:11;;;;;;;7.60;3.97;;;;;;;18.25;39.57;100317.13;4980372;28;20038;-71
2024/02/08 00:50:37;;;;;;;6.30;3.83;;;;;;;18.32;39.39;100327.94;4980046;28;20101;-70
2024/02/08 00:53:05;;;;;;;7.30;4.05;;;;;;;18.28;39.50;100322.13;4980051;28;20038;-72
2024/02/08 00:55:31;;;;;;;6.38;3.60;;;;;;;18.19;39.74;100303.66;4980204;28;20068;-69
2024/02/08 00:57:56;;;;;;;6.43;3.20;;;;;;;18.27;39.23;100309.06;4994900;28;20062;-71
2024/02/08 01:00:22;;;;;;;7.60;3.88;;;;;;;18.20;39.42;100297.41;4979975;28;20067;-69
2024/02/08 01:02:47;;;;;;;6.13;3.65;;;;;;;18.24;39.66;100306.72;4978692;28;20128;-72
2024/02/08 01:05:12;;;;;;;6.53;3.75;;;;;;;18.13;39.73;100290.06;4979565;28;20035;-70
2024/02/08 01:07:38;;;;;;;6.60;3.72;;;;;;;18.16;39.54;100304.75;4979709;28;20594;-69
2024/02/08 01:10:07;;;;;;;6.40;3.50;;;;;;;18.26;39.43;100318.81;4979228;28;20114;-69
2024/02/08 01:12:33;;;;;;;6.80;3.60;;;;;;;18.19;39.58;100314.22;4979192;28;20046;-68
2024/02/08 01:14:58;;;;;;;7.15;3.85;;;;;;;18.19;39.58;100317.69;4979753;28;20133;-72
2024/02/08 01:17:24;;;;;;;5.97;3.47;;;;;;;18.18;39.29;100317.81;4977830;28;20141;-69
2024/02/08 01:19:50;;;;;;;6.78;3.65;;;;;;;18.05;39.51;100287.25;4978971;28;20121;-70
2024/02/08 01:22:19;;;;;;;5.97;3.53;;;;;;;18.18;39.02;100312.53;4979707;28;20019;-71
2024/02/08 01:24:48;;;;;;;5.85;3.50;;;;;;;18.16;39.19;100312.69;4979336;28;20034;-69
2024/02/08 01:27:14;;;;;;;6.20;3.22;;;;;;;18.05;39.57;100289.91;4979422;28;20534;-71
2024/02/08 01:29:39;;;;;;;6.40;3.60;;;;;;;18.04;39.39;100288.25;4979617;28;20035;-70
2024/02/08 01:32:05;;;;;;;6.03;3.72;;;;;;;18.13;39.46;100308.53;4979272;28;20090;-69
2024/02/08 01:34:30;;;;;;;6.45;3.67;;;;;;;18.16;39.36;100311.84;4980460;28;20077;-71
2024/02/08 01:36:56;;;;;;;6.45;3.80;;;;;;;18.11;39.41;100304.34;4980708;28;20503;-71
2024/02/08 01:39:24;;;;;;;6.63;3.47;;;;;;;18.12;39.64;100300.75;4980698;28;20042;-69
2024/02/08 01:41:50;;;;;;;6.13;3.45;;;;;;;18.12;39.68;100292.84;4971346;28;20207;-71
2024/02/08 01:44:16;;;;;;;5.88;3.25;;;;;;;18.01;39.37;100280.63;4980933;28;20038;-70
2024/02/08 01:46:42;;;;;;;6.50;3.30;;;;;;;18.08;39.62;100291.44;4980088;28;20365;-70
2024/02/08 01:49:12;;;;;;;7.75;3.47;;;;;;;18.04;39.67;100282.97;4979866;28;20059;-68
2024/02/08 01:51:39;;;;;;;5.85;3.28;;;;;;;18.12;39.40;100301.56;4980281;28;20038;-71
2024/02/08 01:54:08;;;;;;;6.45;3.60;;;;;;;18.06;39.60;100278.38;4979869;28;20026;-69
2024/02/08 01:56:36;;;;;;;7.50;3.83;;;;;;;17.98;39.64;100265.06;4980068;28;20109;-71
2024/02/08 01:59:02;;;;;;;5.93;3.28;;;;;;;18.08;39.35;100287.00;4980504;28;20065;-73
2024/02/08 02:01:27;;;;;;;6.65;3.45;;;;;;;18.11;39.31;100293.81;4978385;28;20034;-72
2024/02/08 02:03:53;;;;;;;6.53;3.55;;;;;;;17.97;39.38;100271.28;4977122;28;20037;-68
2024/02/08 02:06:19;;;;;;;6.65;3.70;;;;;;;17.97;39.54;100271.28;4978627;28;20034;-70
2024/02/08 02:08:57;;;;;;;6.32;3.70;;;;;;;17.99;39.64;100284.34;4978382;28;20110;-72
2024/02/08 02:11:41;;;;;;;6.20;3.38;;;;;;;17.97;39.34;100275.75;4968866;28;20459;-71
2024/02/08 02:14:09;;;;;;;6.55;3.50;;;;;;;18.09;39.26;100298.38;4978163;28;20042;-72
2024/02/08 02:16:34;;;;;;;5.68;3.53;;;;;;;17.92;39.51;100270.88;4978302;28;20060;-70
2024/02/08 02:18:59;;;;;;;6.95;3.60;;;;;;;17.93;39.36;100275.19;4978055;28;20472;-72
2024/02/08 02:21:27;;;;;;;7.50;3.60;;;;;;;18.03;39.49;100289.22;4977987;28;20030;-69
2024/02/08 02:23:53;;;;;;;6.10;3.53;;;;;;;18.00;39.42;100278.94;4978040;28;20041;-71
2024/02/08 02:26:19;;;;;;;6.15;3.20;;;;;;;18.00;39.21;100278.13;4978232;28;20087;-71
2024/02/08 02:28:46;;;;;;;6.35;3.40;;;;;;;18.04;39.30;100274.22;4978143;28;20403;-68
2024/02/08 02:31:13;;;;;;;5.97;3.55;;;;;;;18.04;39.17;100274.22;4978221;28;20062;-69
2024/02/08 02:33:40;;;;;;;6.25;3.60;;;;;;;17.88;39.39;100246.59;4977716;28;20034;-70
2024/02/08 02:36:07;;;;;;;5.68;3.00;;;;;;;17.99;39.22;100258.84;4978189;28;20475;-71
2024/02/08 02:38:35;;;;;;;5.45;3.08;;;;;;;17.97;39.45;100247.56;4977673;28;20042;-71
2024/02/08 02:41:06;;;;;;;6.57;3.92;;;;;;;17.88;39.23;100224.66;4977354;28;20035;-73
2024/02/08 02:43:35;;;;;;;5.72;3.30;;;;;;;17.95;39.18;100250.34;4977640;28;20034;-72
2024/02/08 02:46:01;;;;;;;6.50;3.92;;;;;;;17.97;39.18;100252.03;4977494;28;20579;-71
2024/02/08 02:48:26;;;;;;;6.60;4.25;;;;;;;17.91;39.11;100233.16;4977942;28;20027;-69
2024/02/08 02:50:52;;;;;;;6.47;3.55;;;;;;;17.93;39.45;100225.09;4992795;28;20193;-72
2024/02/08 02:53:18;;;;;;;6.32;3.35;;;;;;;17.96;39.40;100232.75;4977448;28;20046;-69
2024/02/08 02:55:44;;;;;;;6.53;3.78;;;;;;;17.84;39.41;100208.28;4977676;28;20034;-71
2024/02/08 02:58:09;;;;;;;7.18;3.95;;;;;;;17.90;39.31;100220.13;4977198;28;20073;-70
2024/02/08 03:00:36;;;;;;;6.00;3.65;;;;;;;17.85;39.29;100215.22;4977352;28;20034;-69
2024/02/08 03:03:12;;;;;;;6.72;3.80;;;;;;;17.92;39.20;100237.44;4974490;28;20031;-72
2024/02/08 03:05:46;;;;;;;6.38;3.88;;;;;;;17.92;39.32;100229.53;4977239;28;20034;-69
2024/02/08 03:08:11;;;;;;;6.47;3.90;;;;;;;17.86;39.53;100216.88;4977143;28;20037;-69
2024/02/08 03:10:42;;;;;;;7.07;3.80;;;;;;;17.91;39.43;100214.69;4977519;28;20030;-70
2024/02/08 03:13:10;;;;;;;7.80;4.38;;;;;;;17.90;39.20;100213.03;4977199;28;20046;-71
2024/02/08 03:15:36;;;;;;;7.80;4.28;;;;;;;17.84;39.08;100197.72;4977657;28;20038;-72
2024/02/08 03:18:03;;;;;;;7.22;4.07;;;;;;;17.86;39.26;100208.94;4967799;28;21188;-70
2024/02/08 03:20:31;;;;;;;6.80;3.88;;;;;;;17.75;39.06;100195.91;4977193;28;20037;-71
2024/02/08 03:22:57;;;;;;;7.55;4.07;;;;;;;17.91;39.17;100219.13;4977358;28;20035;-69
2024/02/08 03:25:22;;;;;;;6.32;3.80;;;;;;;17.86;39.32;100213.41;4977128;28;20049;-71
2024/02/08 03:27:51;;;;;;;6.55;3.97;;;;;;;17.75;39.46;100195.91;4977240;28;20114;-72
2024/02/08 03:30:22;;;;;;;6.70;4.20;;;;;;;17.90;39.41;100220.13;4977164;28;20034;-69
2024/02/08 03:32:55;;;;;;;6.85;3.90;;;;;;;17.77;39.45;100201.91;4976922;28;20109;-72
2024/02/08 03:35:27;;;;;;;7.93;4.13;;;;;;;17.80;39.32;100220.06;4977448;28;20149;-70
2024/02/08 03:37:56;;;;;;;7.68;4.30;;;;;;;17.83;39.16;100229.50;4976873;28;20034;-72
2024/02/08 03:40:22;;;;;;;5.97;3.88;;;;;;;17.74;39.30;100208.28;4977434;28;20100;-71
2024/02/08 03:42:49;;;;;;;7.28;4.00;;;;;;;17.83;39.42;100222.44;4977501;28;20030;-72
2024/02/08 03:45:18;;;;;;;7.60;4.15;;;;;;;17.76;39.24;100203.69;4976919;28;20035;-71
2024/02/08 03:47:46;;;;;;;5.82;3.90;;;;;;;17.86;39.36;100223.94;4976972;28;20125;-69
2024/02/08 03:50:11;;;;;;;6.28;3.80;;;;;;;17.68;39.46;100193.00;4977308;28;20050;-69
2024/02/08 03:52:37;;;;;;;8.05;4.00;;;;;;;17.72;39.44;100202.31;4977068;28;20069;-71
2024/02/08 03:55:08;;;;;;;6.00;3.60;;;;;;;17.75;39.27;100195.91;4976676;28;20137;-69
2024/02/08 03:57:34;;;;;;;7.55;3.88;;;;;;;17.81;39.29;100207.72;4976848;28;20038;-70
2024/02/08 04:00:01;;;;;;;6.55;3.60;;;;;;;17.76;39.21;100190.50;4976991;28;20039;-71
2024/02/08 04:02:26;;;;;;;7.18;3.55;;;;;;;17.79;39.23;100201.75;4974812;28;20038;-69
2024/02/08 04:04:59;;;;;;;7.32;3.90;;;;;;;17.76;39.21;100192.31;4976974;28;20097;-68
2024/02/08 04:07:45;;;;;;;6.82;4.07;;;;;;;17.66;39.21;100189.69;4976828;28;20391;-70
2024/02/08 04:53:30;;;;;;;7.60;3.70;;;;;;;17.81;39.29;100205.91;4976662;28;20045;-70
2024/02/08 04:54:18;;;;;;;9.00;4.28;;;;;;;17.64;39.28;100159.16;4979147;28;20403;-69
2024/02/08 04:56:46;;;;;;;5.85;3.70;;;;;;;17.55;39.12;100142.38;4980032;28;20035;-72
2024/02/08 04:59:12;;;;;;;6.63;3.75;;;;;;;17.64;39.29;100154.75;4979735;28;20107;-73
2024/02/08 05:01:38;;;;;;;8.48;4.00;;;;;;;17.58;39.11;100144.75;4978989;28;20105;-71
2024/02/08 05:04:06;;;;;;;7.75;4.28;;;;;;;17.53;39.11;100126.72;4979441;28;20121;-71
2024/02/08 05:06:35;;;;;;;6.95;4.00;;;;;;;17.64;39.20;100141.56;4979897;28;20493;-73
2024/02/08 05:09:00;;;;;;;6.82;4.00;;;;;;;17.56;39.19;100129.06;4979274;28;20026;-72
2024/02/08 05:11:29;;;;;;;5.60;3.67;;;;;;;17.66;39.28;100152.78;4979626;28;20149;-72
2024/02/08 05:14:00;;;;;;;7.75;4.40;;;;;;;17.51;39.05;100139.16;4979207;28;20813;-71
2024/02/08 05:16:26;;;;;;;7.18;4.20;;;;;;;17.63;39.13;100147.78;4979584;28;20038;-72
2024/02/08 05:18:53;;;;;;;7.35;3.95;;;;;;;17.63;39.34;100147.78;4979224;28;20034;-72
2024/02/08 05:21:19;;;;;;;6.22;3.90;;;;;;;17.64;39.22;100140.72;4979060;28;20045;-71
2024/02/08 05:23:47;;;;;;;6.15;3.88;;;;;;;17.59;39.19;100133.22;4979790;28;20031;-71
2024/02/08 05:26:18;;;;;;;8.48;4.30;;;;;;;17.49;39.34;100116.59;4979192;28;20038;-73
2024/02/08 05:28:44;;;;;;;7.63;4.60;;;;;;;17.64;39.09;100138.94;4978737;28;20031;-73
2024/02/08 05:31:10;;;;;;;7.07;3.92;;;;;;;17.59;39.03;100125.31;4978892;28;20037;-68
2024/02/08 05:33:35;;;;;;;5.88;3.90;;;;;;;17.58;39.10;100119.22;4979161;28;20038;-71
2024/02/08 05:36:06;;;;;;;7.30;4.35;;;;;;;17.58;38.95;100128.94;4978957;28;20022;-72
2024/02/08 05:38:40;;;;;;;6.70;3.97;;;;;;;17.38;39.07;100096.47;4978884;28;20030;-70
2024/02/08 05:41:07;;;;;;;6.65;3.67;;;;;;;17.58;39.53;100127.13;4978825;28;20073;-71
2024/02/08 05:43:41;;;;;;;6.95;4.07;;;;;;;17.47;39.11;100118.53;4976806;28;21036;-71
2024/02/08 05:46:10;;;;;;;6.38;3.70;;;;;;;17.57;39.17;100129.91;4978911;28;20030;-71
2024/02/08 05:48:39;;;;;;;6.18;3.47;;;;;;;17.51;39.36;100127.81;4978313;28;20046;-72
2024/02/08 05:51:11;;;;;;;5.82;3.35;;;;;;;17.62;39.69;100126.84;4978780;28;20030;-69
2024/02/08 05:53:42;;;;;;;5.25;3.15;;;;;;;17.61;39.92;100123.41;4978443;28;20042;-73
2024/02/08 05:56:08;;;;;;;5.82;2.80;;;;;;;17.58;40.16;100111.31;4977487;28;20050;-69
2024/02/08 05:58:34;;;;;;;5.10;2.83;;;;;;;17.67;40.29;100114.09;4977127;28;20030;-71
2024/02/08 06:01:05;;;;;;;4.63;2.40;;;;;;;17.71;40.04;100105.75;4978731;28;20023;-69
2024/02/08 06:03:37;;;;;;;4.80;2.20;;;;;;;17.65;40.38;100079.97;4977181;28;20031;-70
2024/02/08 06:06:06;;;;;;;4.60;2.30;;;;;;;17.79;40.22;100093.69;4978535;28;20045;-73
2024/02/08 06:08:39;;;;;;;4.13;2.00;;;;;;;17.73;40.05;100088.00;4978073;28;20137;-71
2024/02/08 06:11:22;;;;;;;4.60;2.05;;;;;;;17.83;40.09;100098.56;4978184;28;20022;-72
2024/02/08 06:13:55;;;;;;;3.78;2.00;;;;;;;17.79;40.33;100083.97;4978084;28;20022;-69
2024/02/08 06:16:27;;;;;;;4.57;2.10;;;;;;;17.83;40.09;100084.53;4978236;28;20034;-72
2024/02/08 06:18:57;;;;;;;5.22;2.08;;;;;;;17.80;40.17;100063.72;4978350;28;20092;-71
2024/02/08 06:21:39;;;;;;;3.90;2.20;;;;;;;17.94;40.22;100084.41;4978124;28;20031;-71
2024/02/08 06:26:58;;;;;;;4.13;2.00;;;;;;;17.90;40.03;100070.69;4977731;28;20042;-69
2024/02/08 06:29:26;;;;;;;3.97;1.88;;;;;;;17.94;40.24;100076.50;4977878;28;20816;-70
2024/02/08 06:32:02;;;;;;;4.45;2.08;;;;;;;18.06;40.35;100098.28;4977822;28;20069;-69
2024/02/08 06:34:42;;;;;;;5.68;2.30;;;;;;;18.06;40.09;100101.72;4977521;28;20377;-69
2024/02/08 06:37:26;;;;;;;6.03;2.15;;;;;;;17.94;39.89;100068.59;4977627;28;20038;-73
2024/02/08 06:39:57;;;;;;;4.85;2.13;;;;;;;17.98;39.93;100075.25;4977273;28;20114;-70
2024/02/08 06:42:44;;;;;;;4.55;2.13;;;;;;;18.07;40.03;100082.31;4977093;28;20471;-71
2024/02/08 06:45:24;;;;;;;4.72;2.33;;;;;;;17.99;40.08;100049.69;4976391;28;20026;-69
2024/02/08 07:37:18;;;;;;;4.15;2.22;;;;;;;18.13;40.56;99991.22;4976727;28;20545;-71
2024/02/08 07:39:47;;;;;;;4.67;2.10;;;;;;;18.17;40.51;99997.06;4977403;28;20481;-71
2024/02/08 07:42:20;;;;;;;6.97;2.63;;;;;;;18.18;40.43;100004.81;4976659;28;20045;-72
2024/02/08 07:44:50;;;;;;;8.25;3.03;;;;;;;18.12;40.60;99989.59;4977217;28;20066;-71
2024/02/08 07:47:18;;;;;;;8.02;3.05;;;;;;;18.26;40.73;100004.06;4977312;28;20045;-68
2024/02/08 07:49:49;;;;;;;6.82;2.50;;;;;;;18.22;40.90;99995.63;4976611;28;20058;-71
2024/02/08 07:52:19;;;;;;;7.53;3.13;;;;;;;18.20;40.92;99991.47;4977578;28;20050;-69
2024/02/08 07:54:47;;;;;;;6.15;3.22;;;;;;;18.22;41.10;99990.34;4980321;28;20041;-72
2024/02/08 07:57:12;;;;;;;7.55;3.28;;;;;;;18.13;41.11;99973.63;4980259;28;20038;-71
2024/02/08 07:59:42;;;;;;;6.35;2.78;;;;;;;18.24;41.59;99985.75;4980257;28;20034;-72
2024/02/08 08:02:12;;;;;;;8.57;3.20;;;;;;;18.23;41.65;99978.00;4979985;28;20034;-69
2024/02/08 08:04:51;;;;;;;7.63;3.00;;;;;;;18.17;41.80;99952.22;4980720;28;20034;-70
2024/02/08 08:07:22;;;;;;;7.07;3.00;;;;;;;18.12;41.72;99942.13;4980333;28;20464;-71
2024/02/08 08:09:55;;;;;;;7.10;3.20;;;;;;;18.29;42.03;99972.13;4980145;28;20038;-69
2024/02/08 08:12:22;;;;;;;9.38;2.95;;;;;;;18.25;42.29;99954.97;4980526;28;20101;-71
2024/02/08 08:15:35;;;;;;;7.82;2.75;;;;;;;18.21;42.52;99949.13;4980331;28;20038;-68
2024/02/08 08:17:40;;;;;;;5.88;3.00;;;;;;;18.19;42.46;99942.34;4978000;28;20050;-70
2024/02/08 08:23:00;;;;;;;8.25;3.03;;;;;;;18.32;43.20;99942.84;4979748;28;20046;-69
2024/02/08 08:25:59;;;;;;;8.57;3.05;;;;;;;18.31;43.20;99931.47;4979813;28;20407;-69
2024/02/08 08:28:30;;;;;;;10.40;2.97;;;;;;;18.26;43.22;99927.59;4979849;28;20097;-71
2024/02/08 08:31:00;;;;;;;7.50;2.85;;;;;;;18.31;43.51;99930.63;4979936;28;20109;-69
2024/02/08 08:36:28;;;;;;;12.52;4.10;;;;;;;18.39;43.53;99936.00;4979922;28;20089;-70
2024/02/08 08:38:54;;;;;;;12.20;4.03;;;;;;;18.28;43.23;99920.38;4979646;28;20471;-71
2024/02/08 08:41:24;;;;;;;9.63;3.67;;;;;;;18.26;43.57;99917.03;4979127;28;20030;-69
2024/02/08 08:43:55;;;;;;;8.93;3.05;;;;;;;18.24;43.87;99911.91;4979187;28;20066;-72
2024/02/08 08:46:23;;;;;;;8.48;2.88;;;;;;;18.33;43.70;99923.41;4978929;28;20034;-70
2024/02/08 08:48:50;;;;;;;9.98;3.25;;;;;;;18.39;43.69;99937.78;4979068;28;20066;-71
2024/02/08 08:51:22;;;;;;;9.27;3.25;;;;;;;18.25;43.57;99910.13;4979923;28;20480;-72
2024/02/08 08:54:00;;;;;;;9.52;3.22;;;;;;;18.39;43.71;99932.50;4977720;28;20034;-69
2024/02/08 08:56:29;;;;;;;9.25;3.88;;;;;;;18.30;43.34;99915.78;4978849;28;20097;-70
2024/02/08 08:58:58;;;;;;;10.20;3.95;;;;;;;18.29;43.58;99909.69;4978749;28;20082;-69
2024/02/08 09:01:24;;;;;;;13.48;4.85;;;;;;;18.38;43.69;99915.88;4977277;28;20070;-68
2024/02/08 09:04:10;;;;;;;11.50;4.75;;;;;;;18.31;43.95;99893.72;4976173;28;20069;-69
2024/02/08 09:06:42;;;;;;;10.68;4.65;;;;;;;18.40;43.97;99906.00;4978005;28;20070;-68
2024/02/08 09:11:57;;;;;;;11.68;5.00;;;;;;;18.40;44.04;99890.16;4977393;28;20415;-70
2024/02/08 09:14:26;;;;;;;10.35;3.85;;;;;;;18.28;44.05;99862.38;4975996;28;20046;-68
2024/02/08 09:16:57;;;;;;;13.85;4.00;;;;;;;18.42;43.96;99880.31;4974962;28;20080;-69
2024/02/08 09:19:29;;;;;;;12.15;4.10;;;;;;;18.42;44.02;99875.03;4977237;28;20077;-69
2024/02/08 09:22:06;;;;;;;9.30;3.65;;;;;;;18.46;43.65;99879.00;4976413;28;20031;-68
2024/02/08 09:24:38;;;;;;;12.05;4.85;;;;;;;18.45;43.55;99881.78;4975734;28;20026;-70
2024/02/08 09:27:15;;;;;;;9.02;4.10;;;;;;;18.28;43.40;99836.81;4978364;28;20153;-70
2024/02/08 09:29:42;;;;;;;11.63;4.30;;;;;;;18.45;43.48;99865.97;4978525;28;20041;-71
2024/02/08 09:32:43;;;;;;;9.90;4.28;;;;;;;18.30;43.55;99834.03;4968940;28;20034;-70
2024/02/08 09:35:11;;;;;;;8.93;3.70;;;;;;;18.29;43.55;99821.81;4978512;28;20037;-70
2024/02/08 09:37:37;;;;;;;9.77;3.90;;;;;;;18.25;43.19;99810.72;4978593;28;20089;-70
2024/02/08 09:40:18;;;;;;;9.85;4.13;;;;;;;18.30;43.25;99819.00;4978209;28;20037;-69
2024/02/08 09:42:54;;;;;;;10.70;3.80;;;;;;;18.41;43.26;99828.50;4979079;28;20379;-69
2024/02/08 09:48:05;;;;;;;9.05;4.15;;;;;;;18.38;42.98;99797.16;4978132;28;20443;-70
2024/02/08 09:50:36;;;;;;;9.30;3.95;;;;;;;18.31;43.15;99781.13;4975775;28;20081;-71
2024/02/08 09:53:26;;;;;;;10.10;4.03;;;;;;;18.43;42.83;99797.53;4976230;28;20687;-69
2024/02/08 09:56:25;;;;;;;10.00;4.03;;;;;;;18.44;43.09;99811.56;4977880;28;20042;-70
2024/02/08 09:58:58;;;;;;;10.50;4.20;;;;;;;18.33;42.90;99782.78;4978102;28;20034;-69
2024/02/08 10:01:42;;;;;;;7.35;3.63;;;;;;;18.43;43.07;99783.50;4978393;28;20038;-69
2024/02/08 10:04:16;;;;;;;9.45;4.32;;;;;;;18.43;42.65;99767.69;4977516;28;21154;-69
2024/02/08 10:12:29;;;;;;;9.40;3.55;;;;;;;18.33;42.59;99714.22;4984243;28;20193;-68
2024/02/08 10:14:59;;;;;;;8.70;4.23;;;;;;;18.30;42.82;99718.78;4977821;28;20046;-67
2024/02/08 10:17:24;;;;;;;8.55;3.95;;;;;;;18.41;42.50;99733.56;4976160;28;20273;-68
2024/02/08 10:22:53;;;;;;;8.80;4.00;;;;;;;18.30;42.80;99718.78;4977500;28;20526;-69
2024/02/08 10:28:07;;;;;;;8.32;4.47;;;;;;;18.30;42.08;99723.25;4977206;28;20407;-68
2024/02/08 10:30:36;;;;;;;8.23;4.80;;;;;;;18.44;42.17;99735.06;4976491;28;20038;-67
2024/02/08 10:33:05;;;;;;;6.78;3.58;;;;;;;18.34;42.55;99705.28;4976645;28;20460;-68
2024/02/08 10:35:39;;;;;;;7.57;4.03;;;;;;;18.33;42.44;99704.47;4977832;28;20058;-68
2024/02/08 10:38:08;;;;;;;7.15;3.47;;;;;;;18.45;42.44;99737.56;4976960;28;20122;-68
2024/02/08 10:40:35;;;;;;;7.32;3.38;;;;;;;18.47;42.41;99724.19;4977511;28;20035;-67
2024/02/08 10:43:16;;;;;;;6.88;3.53;;;;;;;18.34;42.69;99706.16;4976813;28;20392;-68
2024/02/08 10:45:49;;;;;;;7.72;3.28;;;;;;;18.31;42.79;99702.00;4976212;28;20490;-69
2024/02/08 10:48:16;;;;;;;9.67;4.27;;;;;;;18.45;42.41;99724.34;4972006;28;20034;-70
2024/02/08 10:50:43;;;;;;;7.25;3.38;;;;;;;18.33;42.78;99703.66;4975019;28;20292;-67
2024/02/08 10:53:16;;;;;;;7.30;3.78;;;;;;;18.29;42.46;99698.69;4973232;28;20092;-66
2024/02/08 10:55:52;;;;;;;9.90;3.95;;;;;;;18.36;42.64;99712.09;4976177;28;20035;-67
2024/02/08 10:58:27;;;;;;;7.28;3.47;;;;;;;18.30;42.65;99700.31;4974133;28;20037;-68
2024/02/08 11:03:52;;;;;;;9.20;4.10;;;;;;;18.42;42.78;99721.19;4972805;28;20089;-68
2024/02/08 11:06:31;;;;;;;6.35;3.38;;;;;;;18.28;42.77;99701.47;4974977;28;20026;-67
2024/02/08 11:09:14;;;;;;;7.03;3.42;;;;;;;18.37;42.88;99719.00;4975715;28;20871;-67
2024/02/08 11:11:45;;;;;;;7.50;3.25;;;;;;;18.41;42.99;99716.91;4974747;28;20030;-68
2024/02/08 11:14:18;;;;;;;7.05;3.20;;;;;;;18.37;42.85;99705.00;4975326;28;21068;-68
2024/02/08 11:16:49;;;;;;;6.47;3.35;;;;;;;18.43;42.83;99713.09;4975480;28;20062;-68
2024/02/08 11:19:19;;;;;;;6.68;3.60;;;;;;;18.28;42.87;99688.28;4976347;28;20371;-68
2024/02/08 11:21:49;;;;;;;7.03;3.35;;;;;;;18.43;42.58;99707.00;4975683;28;20038;-69
2024/02/08 11:24:39;;;;;;;7.57;3.45;;;;;;;18.34;42.93;99692.09;4976072;28;20027;-68
2024/02/08 11:27:05;;;;;;;7.95;3.60;;;;;;;18.41;42.60;99701.06;4976220;28;20042;-68
2024/02/08 11:29:45;;;;;;;6.45;3.20;;;;;;;18.43;42.67;99685.91;4980369;28;20041;-68
2024/02/08 11:32:16;;;;;;;6.43;2.90;;;;;;;18.37;42.74;99645.13;4980372;28;20055;-68
2024/02/08 11:34:44;;;;;;;5.97;2.85;;;;;;;18.34;42.79;99631.44;4980737;28;20035;-68
2024/02/08 11:37:17;;;;;;;5.63;3.00;;;;;;;18.42;42.85;99640.25;4980384;28;20062;-68
2024/02/08 11:39:46;;;;;;;5.55;2.72;;;;;;;18.33;42.57;99625.34;4980721;28;20042;-68
2024/02/08 11:42:17;;;;;;;5.45;2.85;;;;;;;18.36;42.70;99630.31;4981189;28;20058;-68
2024/02/08 11:44:43;;;;;;;6.80;2.90;;;;;;;18.41;42.50;99635.13;4980478;28;20030;-68
2024/02/08 11:47:19;;;;;;;5.72;2.80;;;;;;;18.38;42.52;99624.88;4980559;28;20034;-68
2024/02/08 11:50:00;;;;;;;6.50;3.33;;;;;;;18.24;42.50;99590.16;4980159;28;20455;-68
2024/02/08 11:52:26;;;;;;;7.28;3.53;;;;;;;18.27;42.59;99595.13;4980603;28;20041;-68
2024/02/08 11:55:15;;;;;;;5.90;2.83;;;;;;;18.22;42.65;99567.59;4980456;28;20045;-68
2024/02/08 11:57:41;;;;;;;4.95;2.40;;;;;;;18.36;42.50;99593.38;4980300;28;20375;-68
2024/02/08 12:00:17;;;;;;;5.60;2.58;;;;;;;18.28;42.34;99572.25;4980112;28;20042;-68
2024/02/08 12:02:58;;;;;;;5.32;2.60;;;;;;;18.25;42.70;99556.75;4978994;28;20041;-68
2024/02/08 12:05:33;;;;;;;4.70;2.40;;;;;;;18.30;42.63;99560.53;4979650;28;20093;-68
2024/02/08 12:08:08;;;;;;;5.40;2.55;;;;;;;18.23;42.38;99550.78;4979530;28;20493;-68
2024/02/08 12:10:35;;;;;;;5.90;2.75;;;;;;;18.23;42.57;99540.22;4979646;28;20121;-68
2024/02/08 12:13:01;;;;;;;4.88;2.45;;;;;;;18.36;42.54;99560.88;4979028;28;20390;-68
2024/02/08 12:15:28;;;;;;;4.80;2.28;;;;;;;18.23;42.47;99540.22;4978962;28;20031;-68
2024/02/08 12:18:05;;;;;;;4.57;2.13;;;;;;;18.21;42.37;99531.66;4979027;28;20034;-68
2024/02/08 12:20:36;;;;;;;5.28;2.22;;;;;;;18.34;42.63;99555.81;4978465;28;20468;-68
2024/02/08 12:23:02;;;;;;;3.85;2.15;;;;;;;18.36;42.70;99561.75;4978827;28;20038;-68
2024/02/08 12:25:28;;;;;;;4.80;2.15;;;;;;;18.33;42.65;99542.78;4978978;28;20506;-68
2024/02/08 12:28:06;;;;;;;4.43;2.33;;;;;;;18.22;42.38;99515.66;4978400;28;20038;-68
2024/02/08 12:30:36;;;;;;;3.65;1.90;;;;;;;18.22;42.37;99499.03;4978396;28;20019;-68
2024/02/08 12:33:07;;;;;;;6.20;2.30;;;;;;;18.31;42.33;99511.28;4978140;28;20482;-68
2024/02/08 12:35:34;;;;;;;4.20;2.20;;;;;;;18.30;42.27;99523.63;4978746;28;20041;-69
2024/02/08 12:38:00;;;;;;;4.53;2.28;;;;;;;18.32;42.53;99520.81;4978511;28;20073;-68
2024/02/08 12:40:32;;;;;;;4.93;2.28;;;;;;;18.34;42.51;99534.69;4976836;28;20039;-68
2024/02/08 12:42:58;;;;;;;4.00;2.35;;;;;;;18.19;42.28;99492.25;4978940;28;20092;-68
2024/02/08 12:45:24;;;;;;;4.85;2.03;;;;;;;18.34;42.34;99510.13;4978271;28;20117;-68
2024/02/08 12:47:50;;;;;;;3.70;2.10;;;;;;;18.31;42.23;99500.72;4978392;28;20113;-66
2024/02/08 12:50:17;;;;;;;4.43;2.08;;;;;;;18.36;42.33;99498.44;4978087;28;20129;-67
2024/02/08 12:52:43;;;;;;;4.60;2.00;;;;;;;18.25;42.55;99485.53;4978104;28;20468;-67
2024/02/08 12:55:13;;;;;;;4.20;1.85;;;;;;;18.32;42.45;99489.16;4977782;28;20036;-67
2024/02/08 12:57:40;;;;;;;5.40;2.65;;;;;;;18.25;42.54;99469.72;4978147;28;20632;-67
2024/02/08 13:00:12;;;;;;;4.05;2.03;;;;;;;18.35;42.37;99494.13;4978235;28;20081;-67
2024/02/08 13:02:39;;;;;;;3.78;1.88;;;;;;;18.32;42.46;99483.91;4976633;28;20034;-68
2024/02/08 13:05:05;;;;;;;3.53;1.85;;;;;;;18.33;42.12;99468.91;4977225;28;20089;-67
2024/02/08 13:07:30;;;;;;;4.40;2.22;;;;;;;18.33;42.25;99459.19;4978369;28;20039;-66
2024/02/08 13:10:03;;;;;;;4.50;2.15;;;;;;;18.34;42.57;99442.38;4977753;28;20026;-67
2024/02/08 13:12:29;;;;;;;3.42;1.67;;;;;;;18.24;42.37;99418.75;4978525;28;20138;-68
2024/02/08 13:15:05;;;;;;;3.60;1.70;;;;;;;18.37;42.60;99434.13;4978233;28;20137;-67
2024/02/08 13:24:14;;;;;;;4.03;2.00;;;;;;;18.32;42.49;99420.59;4977908;28;20147;-67
2024/02/08 13:26:40;;;;;;;4.72;1.90;;;;;;;18.32;42.51;99410.06;4978098;28;20480;-67
2024/02/08 13:29:05;;;;;;;3.67;1.70;;;;;;;18.18;42.53;99386.94;4977486;28;20031;-67
2024/02/08 13:31:30;;;;;;;5.03;1.88;;;;;;;18.25;42.22;99380.06;4975990;28;20276;-68
2024/02/08 13:33:55;;;;;;;3.60;1.73;;;;;;;18.33;42.32;99398.53;4977306;28;20030;-67
2024/02/08 13:36:25;;;;;;;3.55;1.80;;;;;;;18.31;42.39;99377.59;4976568;28;20491;-67
2024/02/08 13:38:51;;;;;;;3.85;1.88;;;;;;;18.27;42.55;99367.53;4977530;28;20364;-67
2024/02/08 13:41:17;;;;;;;4.07;1.70;;;;;;;18.23;42.44;99345.09;4976430;28;20073;-68
2024/02/08 13:43:46;;;;;;;3.53;1.70;;;;;;;18.38;42.63;99372.50;4975299;28;20042;-68
2024/02/08 13:46:13;;;;;;;3.20;1.50;;;;;;;18.23;42.37;99334.53;4977747;28;20045;-68
2024/02/08 13:48:38;;;;;;;3.28;1.55;;;;;;;18.36;42.40;99358.66;4976260;28;20122;-68